Main page
METAR-TAF:

METAR-TAF

Airports :

Gibraltar International Airport

Gibraltar, Gibraltar

latitude: 36-09N, longitude: 005-21W, elevation: 5 m

Current weather observation

The report was made 46 minutes ago, at 23:20 UTC
Wind 10 kt from the West/Southwest
Temperature 25°C
Humidity 36%
Pressure 1014 hPa
Visibility 10 km or more

METAR: LXGB 142320Z AUTO 25010KT 9999 NCD 25/09 Q1014

Time: 02:06 (00:06 UTC)

Forecast

The report was made 7 hours and 46 minutes ago, at 16:20 UTC
Forecast valid from 14 at 18 UTC to 14 at 22 UTC
Wind 8 kt from the Southwest
Visibility 10 km or more
no clouds below 1500 m and no cumulonimbus
Probability 40%
from 14 at 18 UTC to 14 at 19 UTC
Wind 12 kt from the South/Southwest

TAF: LXGB 141620Z 1418/1422 23008KT CAVOK PROB40 1418/1419 20012KT 520002

Weather observations and forecasts of more than 4000 airports (METAR and TAF reports).

The available stations are represented by yellow and red dots on the map.

Hover mouse over dot to see the name of the station.

Then click to see weather observations and forecasts.

To change the map : click on the green buttons with a black cross to zoom in, on the green button with a dash to zoom out, or on the green arrows for adjacent maps.


METAR-TAF: